Robins Afb Information

FAA: WRB - ICAO: KWRB

Robins Afb (Airport) Location

State Georgia
County Houston
City Warner Robins
Robins Afb (Airport) is 10 miles southeast of Warner Robins, GA.
Latitude 32-38-24.6150N
Longitude 083-35-30.9150W
Elevation 294ft

Robins Afb METARs

METAR KWRB 190156Z 13003KT 10SM BKN250 06/02 A3021 RMK AO2A SLP234 T00550020
Altimeter 30.21"
Temperature 5.5°C (41.9°F)
Wind 130° at 3KT
Clouds broken at 25,000ft
Visibility 10.0mi
Time observed: 2022-01-19T01:56:00Z

Robins Afb (Airport) Details

Status Operational
Activation September 1943
Ownership Military - Air Force
Usage Private
Chart ATLANTA
ATC on-site Yes
Beacon schedule sunset-sunrise
Beacon color clear green

Robins Afb (Airport) Contacts

Owner USAF
Owner address ROBINS AFB, WARNER ROBINS, GA 31093
Owner phone N/A
Manager KEITH CLAXTON
Manager address 48 CLAXTON SCOTT WAY, SWAINSBORO, GA 30401-6026
Manager phone (478) 494-7341

Robins Afb Radio Frequencies

Robins Afb (Airport) Radio Frequencies

UNICOM N/A
Common traffic advisory frequency (CTAF) N/A